KIPT/IPT METAR and TAF weather

Enter ICAO airport designator
Station Type Date Time Source
KIPT METAR 2022/01/23 11:54 UTC NOAA

KIPT 231154Z 00000KT 10SM CLR M10/M14 A2994 RMK AO2 SLP148 T11001144 11067 21100 58013


Station Type Date Time Source
KIPT Decoded METAR 2022/01/23 11:54 UTC NOAA

WILLIAMSPORT-LYCOMING COUNTY, PA, United States (KIPT) 41-15N 076-55W 164M
Jan 23, 2022 - 06:54 AM EST / 2022.01.23 1154 UTC
Wind: Calm:0
Visibility: 10 mile(s):0
Sky conditions: clear
Temperature: 14.0 F (-10.0 C)
Dew Point: 6.1 F (-14.4 C)
Relative Humidity: 70%
Pressure (altimeter): 29.94 in. Hg (1013 hPa)
Pressure tendency: 0.04 inches (1.3 hPa) lower than three hours ago
ob: KIPT 231154Z 00000KT 10SM CLR M10/M14 A2994 RMK AO2 SLP148 T11001144 11067 21100 58013
cycle: 12

Station Type Date Time Source
KIPT TAF 2022/01/23 12:22 UTC NOAA

TAF KIPT 231120Z 2312/2412 VRB03KT P6SM OVC040
FM231800 24006KT 2SM -SN BR OVC025
FM240300 32003KT P6SM OVC025
FM241000 29002KT P6SM OVC050

Example: see airport list